createdAt,value
2023-02-03T03:47:53.390Z,525.00
2023-02-03T03:48:53.466Z,526.00
2023-02-03T03:49:53.497Z,525.00
2023-02-03T03:50:53.520Z,524.00
2023-02-03T03:51:53.537Z,522.00
2023-02-03T03:52:53.580Z,521.00
2023-02-03T03:53:53.617Z,524.00
2023-02-03T03:54:53.652Z,522.00
2023-02-03T03:55:53.714Z,522.00
2023-02-03T03:56:53.729Z,523.00
2023-02-03T03:57:53.773Z,525.00
2023-02-03T03:58:53.803Z,524.00
2023-02-03T03:59:53.851Z,519.00
2023-02-03T04:00:53.902Z,521.00
2023-02-03T04:01:54.078Z,519.00
2023-02-03T04:02:53.972Z,520.00
2023-02-03T04:03:53.991Z,519.00
2023-02-03T04:04:54.037Z,517.00
2023-02-03T04:05:54.079Z,520.00
2023-02-03T04:06:54.109Z,517.00
2023-02-03T04:07:54.148Z,519.00
2023-02-03T04:08:54.177Z,513.00
2023-02-03T04:09:54.189Z,521.00
2023-02-03T04:10:54.230Z,519.00
2023-02-03T04:11:54.274Z,518.00
2023-02-03T04:12:54.304Z,518.00
2023-02-03T04:13:54.327Z,513.00
2023-02-03T04:14:54.382Z,517.00
2023-02-03T04:15:54.439Z,517.00
2023-02-03T04:16:54.434Z,514.00
2023-02-03T04:17:54.462Z,516.00
2023-02-03T04:18:54.507Z,517.00
2023-02-03T04:19:54.538Z,518.00
2023-02-03T04:20:54.579Z,514.00
2023-02-03T04:21:54.602Z,515.00
2023-02-03T04:22:54.628Z,517.00
2023-02-03T04:23:54.664Z,515.00
2023-02-03T04:24:54.686Z,518.00
2023-02-03T04:25:54.755Z,516.00
2023-02-03T04:26:54.746Z,516.00
2023-02-03T04:27:54.828Z,514.00
2023-02-03T04:28:54.803Z,514.00
2023-02-03T04:29:54.838Z,509.00
2023-02-03T04:30:54.891Z,512.00
2023-02-03T04:31:55.022Z,512.00
2023-02-03T04:32:54.942Z,509.00
2023-02-03T04:33:54.970Z,512.00
2023-02-03T04:34:54.985Z,512.00
2023-02-03T04:35:55.044Z,509.00
2023-02-03T04:36:55.053Z,510.00
2023-02-03T04:37:55.078Z,512.00
2023-02-03T04:38:55.108Z,508.00
2023-02-03T04:39:55.151Z,511.00
2023-02-03T04:40:55.174Z,513.00
2023-02-03T04:41:55.183Z,510.00
2023-02-03T04:42:55.223Z,512.00
2023-02-03T04:43:55.239Z,510.00
2023-02-03T04:44:55.272Z,511.00
2023-02-03T04:45:55.364Z,510.00
2023-02-03T04:46:56.085Z,510.00
2023-02-03T04:47:55.361Z,508.00
2023-02-03T04:48:55.375Z,509.00
2023-02-03T04:49:55.395Z,508.00
2023-02-03T04:50:55.460Z,507.00
2023-02-03T04:51:55.558Z,512.00
2023-02-03T04:52:55.490Z,511.00
2023-02-03T04:53:55.506Z,508.00
2023-02-03T04:54:55.543Z,511.00
2023-02-03T04:55:55.574Z,508.00
2023-02-03T04:56:55.600Z,509.00
2023-02-03T04:57:55.624Z,507.00
2023-02-03T04:58:55.656Z,505.00
2023-02-03T04:59:55.719Z,508.00
2023-02-03T05:00:55.754Z,507.00
2023-02-03T05:01:55.748Z,508.00
2023-02-03T05:02:55.821Z,507.00
2023-02-03T05:03:55.794Z,506.00
2023-02-03T05:04:55.822Z,506.00
2023-02-03T05:05:55.875Z,507.00
2023-02-03T05:06:55.879Z,504.00
2023-02-03T05:07:55.925Z,507.00
2023-02-03T05:08:55.940Z,509.00
2023-02-03T05:09:55.984Z,507.00
2023-02-03T05:10:55.994Z,508.00
2023-02-03T05:11:56.039Z,507.00
2023-02-03T05:12:56.082Z,506.00
2023-02-03T05:13:56.102Z,508.00
2023-02-03T05:14:56.130Z,510.00
2023-02-03T05:15:56.167Z,506.00
2023-02-03T05:16:56.257Z,510.00
2023-02-03T05:17:56.225Z,508.00
2023-02-03T05:18:56.264Z,513.00
2023-02-03T05:19:56.305Z,507.00
2023-02-03T05:20:56.320Z,509.00
2023-02-03T05:21:56.343Z,509.00
2023-02-03T05:22:56.374Z,507.00
2023-02-03T05:23:56.397Z,506.00
2023-02-03T05:24:56.433Z,507.00
2023-02-03T05:25:56.448Z,506.00
2023-02-03T05:26:56.478Z,507.00
2023-02-03T05:27:56.559Z,509.00
2023-02-03T05:28:57.727Z,509.00
2023-02-03T05:29:56.535Z,506.00
2023-02-03T05:30:56.605Z,503.00
2023-02-03T05:31:56.710Z,507.00
2023-02-03T05:32:56.615Z,508.00
2023-02-03T05:33:56.645Z,507.00
2023-02-03T05:34:56.671Z,506.00
2023-02-03T05:35:56.692Z,507.00
2023-02-03T05:36:56.732Z,510.00
2023-02-03T05:37:56.753Z,510.00
2023-02-03T05:38:56.808Z,510.00
2023-02-03T05:39:56.817Z,505.00
2023-02-03T05:40:56.901Z,506.00
2023-02-03T05:41:58.468Z,513.00
2023-02-03T05:42:56.936Z,510.00
2023-02-03T05:43:56.960Z,509.00
2023-02-03T05:44:56.987Z,503.00
2023-02-03T05:45:57.066Z,509.00
2023-02-03T05:46:57.049Z,509.00
2023-02-03T05:47:57.096Z,508.00
2023-02-03T05:48:57.099Z,507.00
2023-02-03T05:49:57.134Z,508.00
2023-02-03T05:50:57.164Z,508.00
2023-02-03T05:51:57.198Z,510.00
2023-02-03T05:52:57.227Z,508.00
2023-02-03T05:53:57.240Z,505.00
2023-02-03T05:54:57.271Z,509.00
2023-02-03T05:55:57.317Z,506.00
2023-02-03T05:56:57.346Z,502.00
2023-02-03T05:57:57.371Z,504.00
2023-02-03T05:58:57.396Z,505.00
2023-02-03T05:59:57.425Z,511.00
2023-02-03T06:00:57.456Z,506.00
2023-02-03T06:01:57.484Z,507.00
2023-02-03T06:02:57.525Z,506.00
2023-02-03T06:03:57.721Z,505.00
2023-02-03T06:04:57.577Z,508.00
2023-02-03T06:05:57.611Z,510.00
2023-02-03T06:06:58.105Z,507.00
2023-02-03T06:07:57.666Z,508.00
2023-02-03T06:08:57.691Z,513.00
2023-02-03T06:09:57.734Z,515.00
2023-02-03T06:10:57.744Z,513.00
2023-02-03T06:11:57.792Z,515.00
2023-02-03T06:12:57.818Z,515.00
2023-02-03T06:13:57.839Z,517.00
2023-02-03T06:14:57.901Z,520.00
2023-02-03T06:15:57.920Z,530.00
2023-02-03T06:16:58.017Z,528.00
2023-02-03T06:17:58.357Z,527.00
2023-02-03T06:18:58.054Z,548.00
2023-02-03T06:20:58.143Z,556.00
2023-02-03T06:21:58.200Z,563.00
2023-02-03T06:22:58.259Z,555.00
2023-02-03T06:23:58.276Z,556.00
2023-02-03T06:24:58.326Z,570.00
2023-02-03T07:54:04.212Z,551.00
2023-02-03T09:29:03.675Z,667.00
2023-02-03T09:52:04.681Z,658.00
2023-02-03T10:02:03.696Z,668.00
2023-02-03T10:19:04.295Z,649.00
2023-02-03T10:37:03.376Z,712.00
2023-02-03T10:38:03.405Z,725.00
2023-02-03T10:39:03.429Z,716.00
2023-02-03T10:40:03.467Z,755.00
2023-02-03T10:41:03.541Z,748.00
2023-02-03T10:42:03.553Z,738.00
2023-02-03T10:43:03.536Z,742.00
2023-02-03T10:44:03.542Z,732.00
2023-02-03T10:45:03.554Z,734.00
2023-02-03T10:46:03.635Z,760.00
2023-02-03T10:47:03.613Z,745.00
2023-02-03T10:48:03.632Z,732.00
2023-02-03T10:49:03.671Z,618.00
2023-02-03T10:50:03.820Z,583.00
2023-02-03T10:51:03.761Z,576.00
2023-02-03T10:52:03.719Z,609.00
2023-02-03T10:53:03.886Z,645.00
2023-02-03T10:54:03.783Z,663.00
2023-02-03T10:55:03.855Z,671.00
2023-02-03T10:56:03.817Z,695.00
2023-02-03T10:57:03.837Z,706.00
2023-02-03T10:58:03.847Z,720.00
2023-02-03T10:59:03.903Z,722.00
2023-02-03T11:00:03.918Z,706.00
2023-02-03T11:01:03.922Z,713.00
2023-02-03T11:02:03.957Z,717.00
2023-02-03T11:03:04.069Z,722.00
2023-02-03T11:04:04.078Z,730.00
2023-02-03T11:05:04.023Z,748.00
2023-02-03T11:06:04.113Z,750.00
2023-02-03T11:07:04.162Z,771.00
2023-02-03T11:08:04.127Z,773.00
2023-02-03T11:09:04.272Z,775.00
2023-02-03T11:10:04.393Z,795.00
2023-02-03T11:11:04.289Z,838.00
2023-02-03T11:12:04.482Z,908.00
2023-02-03T11:13:04.376Z,981.00
2023-02-03T11:14:04.438Z,1034.00
2023-02-03T11:15:04.478Z,1017.00
2023-02-03T11:16:04.602Z,965.00
2023-02-03T11:18:04.627Z,928.00
2023-02-03T11:19:04.643Z,928.00
2023-02-03T11:21:04.606Z,939.00
2023-02-03T11:22:04.605Z,896.00
2023-02-03T11:23:04.599Z,858.00
2023-02-03T11:24:04.603Z,823.00
2023-02-03T11:25:04.613Z,802.00
2023-02-03T11:26:05.147Z,787.00
2023-02-03T11:27:04.702Z,776.00
2023-02-03T11:28:04.807Z,774.00
2023-02-03T11:29:04.596Z,772.00
2023-02-03T11:30:06.160Z,742.00
2023-02-03T11:31:04.613Z,769.00
2023-02-03T11:32:04.783Z,779.00
2023-02-03T11:33:04.581Z,753.00
2023-02-03T11:34:04.567Z,743.00
2023-02-03T11:35:04.555Z,769.00
2023-02-03T11:36:04.559Z,759.00
2023-02-03T11:37:04.545Z,809.00
2023-02-03T11:38:04.585Z,841.00
2023-02-03T11:39:04.573Z,798.00
2023-02-03T11:40:04.570Z,794.00
2023-02-03T11:41:04.533Z,856.00
2023-02-03T11:42:04.536Z,901.00
2023-02-03T11:43:04.622Z,874.00
2023-02-03T11:44:04.659Z,826.00
2023-02-03T11:45:04.586Z,771.00
2023-02-03T11:46:04.681Z,754.00
2023-02-03T11:47:04.633Z,774.00
2023-02-03T11:48:04.657Z,796.00
2023-02-03T11:49:04.686Z,810.00
2023-02-03T11:50:04.719Z,822.00
2023-02-03T11:51:04.710Z,804.00
2023-02-03T11:52:04.726Z,803.00
2023-02-03T11:53:04.748Z,793.00
2023-02-03T11:54:04.811Z,794.00
2023-02-03T11:55:04.777Z,816.00
2023-02-03T11:56:04.799Z,846.00
2023-02-03T11:57:04.825Z,851.00
2023-02-03T11:58:04.869Z,871.00
2023-02-03T11:59:04.871Z,867.00
2023-02-03T12:00:04.883Z,884.00
2023-02-03T12:01:04.927Z,878.00
2023-02-03T12:02:04.923Z,880.00
2023-02-03T12:03:05.045Z,929.00
2023-02-03T12:04:05.076Z,945.00
2023-02-03T12:05:05.067Z,939.00
2023-02-03T12:06:05.046Z,897.00
2023-02-03T12:07:05.049Z,926.00
2023-02-03T12:08:05.069Z,900.00
2023-02-03T12:09:05.088Z,890.00
2023-02-03T12:10:05.129Z,919.00
2023-02-03T12:11:05.148Z,918.00
2023-02-03T12:12:05.163Z,850.00
2023-02-03T12:13:05.207Z,866.00
2023-02-03T12:14:05.186Z,891.00
2023-02-03T12:15:05.188Z,886.00
2023-02-03T12:16:05.265Z,923.00
2023-02-03T12:17:05.233Z,880.00
2023-02-03T12:18:05.245Z,920.00
2023-02-03T12:19:05.271Z,901.00
2023-02-03T12:20:05.291Z,848.00
2023-02-03T12:21:05.286Z,863.00
2023-02-03T12:22:05.300Z,857.00
2023-02-03T12:23:05.362Z,861.00
2023-02-03T12:24:05.346Z,871.00
2023-02-03T12:25:05.356Z,864.00
2023-02-03T12:26:05.429Z,880.00
2023-02-03T12:27:05.398Z,888.00
2023-02-03T12:28:05.518Z,881.00
2023-02-03T12:29:05.454Z,900.00
2023-02-03T12:30:05.465Z,900.00
2023-02-03T12:31:05.593Z,918.00
2023-02-03T12:32:05.559Z,884.00
2023-02-03T12:33:05.559Z,839.00
2023-02-03T12:34:05.490Z,878.00
2023-02-03T12:35:05.499Z,838.00
2023-02-03T12:36:05.532Z,838.00
2023-02-03T12:37:05.540Z,841.00
2023-02-03T12:38:05.565Z,834.00
2023-02-03T12:39:05.577Z,823.00
2023-02-03T12:40:05.585Z,833.00
2023-02-03T12:41:05.602Z,821.00
2023-02-03T12:42:05.631Z,818.00
2023-02-03T12:43:05.652Z,800.00
2023-02-03T12:44:05.658Z,799.00
2023-02-03T12:45:05.697Z,792.00
2023-02-03T12:46:05.774Z,799.00
2023-02-03T12:47:05.737Z,794.00
2023-02-03T12:48:05.784Z,788.00
2023-02-03T12:49:05.796Z,787.00
2023-02-03T12:50:05.783Z,784.00
2023-02-03T12:51:05.821Z,788.00
2023-02-03T12:52:05.828Z,769.00
2023-02-03T12:53:05.855Z,782.00
2023-02-03T12:54:05.885Z,787.00
2023-02-03T12:55:05.904Z,800.00
2023-02-03T12:56:05.945Z,795.00
2023-02-03T12:57:05.973Z,784.00
2023-02-03T12:58:05.966Z,779.00
2023-02-03T12:59:05.988Z,775.00
2023-02-03T13:00:06.075Z,765.00
2023-02-03T13:01:06.103Z,764.00
2023-02-03T13:02:06.039Z,767.00
2023-02-03T13:03:06.054Z,772.00
2023-02-03T13:04:06.073Z,759.00
2023-02-03T13:05:06.087Z,751.00
2023-02-03T13:06:06.103Z,755.00
2023-02-03T13:07:06.115Z,750.00
2023-02-03T13:08:06.132Z,739.00
2023-02-03T13:09:06.161Z,747.00
2023-02-03T13:10:06.170Z,746.00
2023-02-03T13:11:06.200Z,748.00
2023-02-03T13:12:06.213Z,741.00
2023-02-03T13:13:06.222Z,741.00
2023-02-03T13:14:06.234Z,741.00
2023-02-03T13:15:06.258Z,717.00
2023-02-03T13:16:06.290Z,719.00
2023-02-03T13:17:06.297Z,725.00
2023-02-03T13:18:06.300Z,714.00
2023-02-03T13:19:06.322Z,707.00
2023-02-03T13:20:06.337Z,712.00
2023-02-03T13:21:06.365Z,708.00
2023-02-03T13:22:06.368Z,690.00
2023-02-03T13:23:06.392Z,709.00
2023-02-03T13:24:06.384Z,695.00
2023-02-03T13:25:06.459Z,692.00
2023-02-03T13:26:06.437Z,692.00
2023-02-03T13:27:06.461Z,696.00
2023-02-03T13:28:06.530Z,687.00
2023-02-03T13:29:06.480Z,669.00
2023-02-03T13:30:06.515Z,670.00
2023-02-03T13:31:06.596Z,676.00
2023-02-03T13:32:06.590Z,663.00
2023-02-03T13:33:06.545Z,677.00
2023-02-03T13:34:06.554Z,674.00
2023-02-03T13:35:06.573Z,674.00
2023-02-03T13:36:06.605Z,663.00
2023-02-03T13:37:06.614Z,661.00
2023-02-03T13:38:06.622Z,667.00
2023-02-03T13:39:06.633Z,655.00
2023-02-03T13:40:06.661Z,664.00
2023-02-03T13:41:06.672Z,660.00
2023-02-03T13:42:06.694Z,662.00
2023-02-03T13:43:06.709Z,654.00
2023-02-03T13:44:06.723Z,656.00
2023-02-03T13:45:06.745Z,511.00
2023-02-03T13:46:08.849Z,500.00
2023-02-03T13:47:06.781Z,493.00
2023-02-03T13:48:06.814Z,475.00
2023-02-03T13:49:06.827Z,453.00
2023-02-03T13:50:06.864Z,464.00
2023-02-03T13:51:06.886Z,508.00
2023-02-03T13:52:06.903Z,504.00
2023-02-03T13:53:06.950Z,515.00
2023-02-03T13:54:06.978Z,525.00
2023-02-03T13:55:07.001Z,551.00
2023-02-03T13:56:07.043Z,576.00
2023-02-03T13:57:07.082Z,591.00
2023-02-03T15:18:08.444Z,1187.00
2023-02-03T15:19:08.457Z,1185.00
2023-02-03T15:20:08.496Z,1190.00
2023-02-03T15:21:08.516Z,1175.00
2023-02-03T15:22:08.540Z,1181.00
2023-02-03T15:23:08.564Z,1183.00
2023-02-03T15:24:08.587Z,1181.00
2023-02-03T15:25:08.603Z,1191.00
2023-02-03T15:26:08.622Z,1188.00
2023-02-03T15:27:08.658Z,1181.00
2023-02-03T15:28:08.707Z,1181.00
2023-02-03T15:29:08.720Z,1176.00
2023-02-03T15:31:08.827Z,1167.00
2023-02-03T15:32:08.942Z,1176.00
2023-02-03T15:33:08.806Z,1154.00
2023-02-03T15:34:08.844Z,1152.00
2023-02-03T17:53:41.371Z,500.00
2023-02-03T17:54:41.361Z,500.00
2023-02-03T17:55:41.386Z,500.00
2023-02-03T17:56:41.387Z,500.00
2023-02-03T17:57:41.396Z,500.00
2023-02-03T17:58:41.406Z,495.00
2023-02-03T17:59:41.431Z,501.00
2023-02-03T18:00:41.429Z,499.00
2023-02-03T18:01:41.424Z,500.00
2023-02-03T18:02:41.441Z,502.00
2023-02-03T18:03:41.423Z,503.00
2023-02-03T18:04:41.434Z,500.00
2023-02-03T18:05:41.438Z,500.00
2023-02-03T18:06:41.445Z,503.00
2023-02-03T18:07:41.453Z,500.00
2023-02-03T18:08:41.462Z,500.00
2023-02-03T18:09:41.477Z,500.00
2023-02-03T18:10:41.471Z,502.00
2023-02-03T18:11:41.487Z,502.00
2023-02-03T18:12:41.500Z,501.00
2023-02-03T18:13:41.511Z,500.00
2023-02-03T18:14:41.538Z,504.00
2023-02-03T18:15:41.532Z,501.00
2023-02-03T18:16:41.562Z,503.00
2023-02-03T18:17:41.588Z,503.00
2023-02-03T18:18:41.604Z,503.00
2023-02-03T18:19:46.639Z,504.00
2023-02-03T18:20:42.608Z,504.00
2023-02-03T18:21:41.604Z,502.00
2023-02-03T18:22:41.619Z,500.00
2023-02-03T18:23:41.616Z,500.00
2023-02-03T18:24:41.635Z,495.00
2023-02-03T18:25:41.642Z,501.00
2023-02-03T18:26:41.629Z,501.00
2023-02-03T18:27:41.672Z,504.00
2023-02-03T18:28:41.653Z,506.00
2023-02-03T18:29:41.679Z,500.00
2023-02-03T18:30:41.731Z,503.00
2023-02-03T18:31:42.600Z,504.00
2023-02-03T18:32:41.693Z,502.00
2023-02-03T18:33:41.702Z,502.00
2023-02-03T18:34:41.692Z,505.00
2023-02-03T18:35:41.700Z,508.00
2023-02-03T18:36:41.740Z,503.00
2023-02-03T18:37:41.732Z,503.00
2023-02-03T18:38:41.731Z,503.00
2023-02-03T18:39:41.753Z,502.00
2023-02-03T18:40:41.736Z,505.00
2023-02-03T18:41:41.756Z,506.00
2023-02-03T18:42:41.758Z,504.00
2023-02-03T18:43:41.762Z,503.00
2023-02-03T18:44:41.764Z,507.00
2023-02-03T18:45:41.770Z,505.00
2023-02-03T18:46:41.783Z,506.00
2023-02-03T18:47:41.780Z,507.00
2023-02-03T18:48:41.785Z,504.00
2023-02-03T18:49:41.779Z,508.00
2023-02-03T18:50:41.804Z,508.00
2023-02-03T18:51:41.801Z,504.00
2023-02-03T18:52:41.806Z,509.00
2023-02-03T18:53:41.800Z,505.00
2023-02-03T20:23:43.206Z,504.00
2023-02-03T20:24:43.242Z,503.00
2023-02-03T20:25:43.258Z,504.00
2023-02-03T20:26:43.266Z,506.00
2023-02-03T20:27:43.405Z,504.00
2023-02-03T20:28:43.314Z,503.00
2023-02-03T20:29:43.316Z,504.00
2023-02-03T20:30:43.346Z,501.00
2023-02-03T20:31:43.414Z,504.00
2023-02-03T20:32:43.374Z,503.00
2023-02-03T20:33:43.395Z,501.00
2023-02-03T20:34:43.391Z,505.00
2023-02-03T20:35:43.407Z,504.00
2023-02-03T20:36:43.409Z,501.00
2023-02-03T20:37:43.466Z,507.00
2023-02-03T20:38:43.452Z,504.00
2023-02-03T20:39:43.485Z,505.00
2023-02-03T20:40:43.496Z,505.00
2023-02-03T20:41:43.499Z,509.00
2023-02-03T20:42:43.533Z,505.00
2023-02-03T20:43:43.545Z,505.00
2023-02-03T20:44:44.104Z,507.00
2023-02-03T20:45:43.574Z,504.00
2023-02-03T20:46:43.615Z,504.00
2023-02-03T20:47:43.616Z,504.00
2023-02-03T20:48:43.629Z,506.00
2023-02-03T20:49:43.645Z,503.00
2023-02-03T20:50:44.134Z,507.00
2023-02-03T20:51:43.681Z,507.00
2023-02-03T20:52:43.705Z,500.00
2023-02-03T20:53:43.706Z,506.00
2023-02-03T20:54:43.752Z,501.00
2023-02-03T21:47:44.703Z,502.00
2023-02-03T21:48:44.744Z,507.00
2023-02-03T21:49:44.757Z,506.00
2023-02-03T21:50:44.746Z,507.00
2023-02-03T21:51:44.777Z,506.00
2023-02-03T21:52:44.789Z,506.00
2023-02-03T21:53:44.807Z,505.00
2023-02-03T21:54:44.815Z,505.00
2023-02-03T21:55:44.840Z,507.00
2023-02-03T21:56:44.861Z,506.00
2023-02-03T21:57:44.870Z,509.00
2023-02-03T21:58:44.906Z,506.00
2023-02-03T21:59:44.919Z,502.00
2023-02-03T22:00:45.030Z,507.00
2023-02-03T22:01:44.966Z,509.00
2023-02-03T22:02:45.004Z,506.00
2023-02-03T22:03:44.983Z,507.00
2023-02-03T22:04:44.981Z,508.00
2023-02-03T22:05:44.992Z,509.00
2023-02-03T22:06:45.014Z,506.00
2023-02-03T22:07:45.046Z,506.00
2023-02-03T22:08:45.049Z,505.00
2023-02-03T22:09:45.064Z,505.00
2023-02-03T22:10:45.097Z,507.00
2023-02-03T22:11:45.092Z,508.00
2023-02-03T22:12:45.116Z,508.00
2023-02-03T22:13:45.130Z,504.00
2023-02-03T22:14:45.151Z,509.00
2023-02-03T22:15:45.161Z,506.00
2023-02-03T22:16:45.250Z,506.00
2023-02-03T22:17:45.192Z,509.00
2023-02-03T22:18:45.207Z,505.00
2023-02-03T22:19:45.219Z,503.00
2023-02-03T22:20:45.240Z,505.00
2023-02-03T22:21:45.265Z,506.00
2023-02-03T22:22:45.264Z,508.00
2023-02-03T22:23:45.281Z,505.00
2023-02-03T22:24:45.493Z,505.00
2023-02-03T22:25:45.324Z,506.00
2023-02-03T22:26:45.342Z,507.00
2023-02-03T22:27:45.393Z,506.00
2023-02-03T22:28:45.406Z,508.00
2023-02-03T22:29:45.409Z,510.00
2023-02-03T22:30:45.514Z,510.00
2023-02-03T22:31:45.605Z,507.00
2023-02-03T22:32:45.459Z,508.00
2023-02-03T22:33:45.480Z,508.00
2023-02-03T22:34:45.509Z,506.00
2023-02-03T22:35:45.523Z,503.00
2023-02-03T22:36:45.551Z,505.00
2023-02-03T22:37:45.570Z,506.00
2023-02-03T22:38:45.584Z,508.00
2023-02-03T22:39:45.595Z,507.00
2023-02-03T22:40:45.612Z,508.00
2023-02-03T22:41:45.650Z,505.00
2023-02-03T22:42:45.655Z,503.00
2023-02-03T22:43:45.681Z,505.00
2023-02-03T22:44:45.710Z,503.00
2023-02-03T22:45:45.716Z,505.00
2023-02-03T22:46:45.742Z,506.00
2023-02-03T22:47:45.757Z,503.00
2023-02-03T22:48:45.779Z,504.00
2023-02-03T22:49:45.795Z,505.00
2023-02-03T22:50:45.800Z,505.00
2023-02-03T22:51:45.845Z,508.00
2023-02-03T22:52:45.852Z,507.00
2023-02-03T22:53:46.031Z,507.00
2023-02-03T22:54:45.902Z,505.00
2023-02-03T22:55:45.953Z,503.00
2023-02-03T22:56:45.986Z,506.00
2023-02-03T22:57:46.028Z,504.00
2023-02-03T22:58:46.046Z,510.00
2023-02-03T22:59:46.077Z,509.00
2023-02-03T23:00:46.088Z,505.00
2023-02-03T23:01:46.121Z,508.00
2023-02-03T23:02:46.155Z,505.00
2023-02-03T23:03:46.174Z,504.00
2023-02-03T23:04:46.237Z,509.00
2023-02-03T23:05:46.230Z,506.00
2023-02-03T23:06:46.238Z,505.00
2023-02-03T23:07:46.286Z,501.00
2023-02-03T23:08:46.272Z,502.00
2023-02-03T23:09:46.290Z,505.00
2023-02-03T23:10:46.309Z,502.00
2023-02-03T23:11:46.319Z,506.00
2023-02-03T23:12:46.348Z,502.00
2023-02-03T23:13:46.362Z,507.00
2023-02-03T23:14:46.385Z,505.00
2023-02-03T23:15:46.437Z,507.00
2023-02-03T23:16:46.421Z,503.00
2023-02-03T23:17:46.443Z,501.00
2023-02-03T23:18:46.459Z,503.00
2023-02-03T23:19:46.492Z,506.00
2023-02-03T23:20:46.511Z,502.00
2023-02-03T23:21:46.531Z,503.00
2023-02-03T23:22:46.538Z,504.00
2023-02-03T23:23:46.744Z,502.00
2023-02-03T23:24:46.573Z,502.00
2023-02-03T23:25:46.588Z,502.00
2023-02-03T23:26:46.602Z,504.00
2023-02-03T23:27:46.670Z,504.00
2023-02-03T23:28:46.645Z,504.00
2023-02-03T23:29:46.655Z,503.00
2023-02-03T23:30:46.745Z,502.00
2023-02-03T23:31:46.775Z,501.00
2023-02-03T23:32:46.725Z,505.00
2023-02-03T23:33:46.731Z,502.00
2023-02-03T23:34:46.757Z,501.00
2023-02-03T23:35:46.792Z,503.00
2023-02-03T23:36:46.800Z,503.00
2023-02-03T23:37:46.800Z,504.00
2023-02-03T23:38:46.827Z,506.00
2023-02-03T23:39:46.836Z,505.00
2023-02-03T23:40:46.861Z,506.00
2023-02-03T23:41:46.870Z,503.00
2023-02-03T23:42:46.888Z,503.00
2023-02-03T23:43:46.903Z,500.00
2023-02-03T23:44:46.910Z,502.00
2023-02-03T23:45:46.962Z,503.00
2023-02-03T23:46:46.941Z,502.00
